createdAt,value
2023-04-28T00:01:53.155Z,21.25
2023-04-28T00:04:31.159Z,29.05
2023-04-28T00:07:03.340Z,20.55
2023-04-28T00:09:38.978Z,26.67
2023-04-28T00:12:12.879Z,29.30
2023-04-28T00:14:49.786Z,27.00
2023-04-28T00:17:24.966Z,24.90
2023-04-28T00:20:02.691Z,23.30
2023-04-28T00:22:39.580Z,21.67
2023-04-28T00:25:19.115Z,23.75
2023-04-28T00:27:55.261Z,30.63
2023-04-28T00:30:35.431Z,27.10
2023-04-28T00:33:18.708Z,25.65
2023-04-28T00:35:56.803Z,25.10
2023-04-28T00:38:31.053Z,25.27
2023-04-28T00:41:08.773Z,25.58
2023-04-28T00:43:55.551Z,28.73
2023-04-28T00:46:41.212Z,26.02
2023-04-28T00:49:22.088Z,24.15
2023-04-28T00:51:58.134Z,23.65
2023-04-28T00:54:37.216Z,27.33
2023-04-28T00:57:14.415Z,22.40
2023-04-28T01:00:01.959Z,18.85
2023-04-28T01:02:53.224Z,23.88
2023-04-28T01:05:35.195Z,25.52
2023-04-28T01:08:21.579Z,25.10
2023-04-28T01:10:59.673Z,23.48
2023-04-28T01:13:58.555Z,27.17
2023-04-28T01:16:36.872Z,28.83
2023-04-28T01:19:26.942Z,25.55
2023-04-28T01:21:59.948Z,21.25
2023-04-28T01:24:35.782Z,18.23
2023-04-28T01:27:11.974Z,22.63
2023-04-28T01:29:56.069Z,20.05
2023-04-28T01:32:30.874Z,18.65
2023-04-28T01:35:05.294Z,24.17
2023-04-28T01:37:41.788Z,20.92
2023-04-28T01:40:23.312Z,21.40
2023-04-28T01:45:46.789Z,22.55
2023-04-28T01:48:22.227Z,21.23
2023-04-28T01:50:56.014Z,26.08
2023-04-28T01:53:32.336Z,17.88
2023-04-28T01:56:14.773Z,17.73
2023-04-28T01:58:57.613Z,20.40
2023-04-28T02:01:39.141Z,19.25
2023-04-28T02:04:22.930Z,27.33
2023-04-28T02:07:01.605Z,15.40
2023-04-28T02:09:41.370Z,19.25
2023-04-28T02:12:23.998Z,15.25
2023-04-28T02:15:00.655Z,16.83
2023-04-28T02:17:34.049Z,18.25
2023-04-28T02:20:11.415Z,16.75
2023-04-28T02:22:48.574Z,16.40
2023-04-28T02:25:25.235Z,21.83
2023-04-28T02:28:04.563Z,18.17
2023-04-28T02:30:55.270Z,17.48
2023-04-28T02:33:34.597Z,13.63
2023-04-28T02:36:23.015Z,20.20
2023-04-28T02:39:01.142Z,16.70
2023-04-28T02:41:38.816Z,16.33
2023-04-28T02:44:27.291Z,20.17
2023-04-28T02:47:12.489Z,18.08
2023-04-28T02:50:01.132Z,20.83
2023-04-28T02:52:35.139Z,20.55
2023-04-28T02:55:25.566Z,25.52
2023-04-28T02:58:00.525Z,21.55
2023-04-28T03:00:40.095Z,22.30
2023-04-28T03:03:24.072Z,19.58
2023-04-28T03:05:58.440Z,19.67
2023-04-28T03:08:33.242Z,21.00
2023-04-28T03:11:11.371Z,17.83
2023-04-28T03:13:48.232Z,20.38
2023-04-28T03:16:35.870Z,19.08
2023-04-28T03:19:13.669Z,21.50
2023-04-28T03:21:54.512Z,23.75
2023-04-28T03:24:46.028Z,27.75
2023-04-28T03:27:26.717Z,20.52
2023-04-28T03:30:03.106Z,21.50
2023-04-28T03:32:44.277Z,25.05
2023-04-28T03:35:25.556Z,23.30
2023-04-28T03:38:11.041Z,23.00
2023-04-28T03:40:48.065Z,22.17
2023-04-28T03:43:39.924Z,29.38
2023-04-28T03:46:20.771Z,24.95
2023-04-28T03:48:57.392Z,23.90
2023-04-28T03:51:34.444Z,27.35
2023-04-28T03:54:14.082Z,26.80
2023-04-28T03:59:23.703Z,25.75
2023-04-28T04:01:54.542Z,24.67
2023-04-28T04:04:44.679Z,30.77
2023-04-28T04:07:18.728Z,30.88
2023-04-28T04:10:03.859Z,28.15
2023-04-28T04:12:46.319Z,26.33
2023-04-28T04:15:22.223Z,29.85
2023-04-28T04:18:03.125Z,34.88
2023-04-28T04:20:58.697Z,28.67
2023-04-28T04:23:40.630Z,31.55
2023-04-28T04:26:17.408Z,31.58
2023-04-28T04:28:56.938Z,33.15
2023-04-28T04:31:46.258Z,28.10
2023-04-28T04:34:24.933Z,29.98
2023-04-28T04:36:59.250Z,23.30
2023-04-28T04:39:37.236Z,30.70
2023-04-28T04:42:24.196Z,29.02
2023-04-28T04:45:18.491Z,31.00
2023-04-28T04:47:54.304Z,39.22
2023-04-28T04:50:29.160Z,32.80
2023-04-28T04:53:13.334Z,32.33
2023-04-28T04:55:53.118Z,36.95
2023-04-28T04:58:29.634Z,34.08
2023-04-28T05:01:12.756Z,37.85
2023-04-28T05:03:49.020Z,35.05
2023-04-28T05:06:25.866Z,39.72
2023-04-28T05:09:02.716Z,41.90
2023-04-28T05:11:43.973Z,41.90
2023-04-28T05:17:01.783Z,39.83
2023-04-28T05:19:48.092Z,34.25
2023-04-28T05:22:24.828Z,36.15
2023-04-28T05:25:02.063Z,34.05
2023-04-28T05:27:35.940Z,32.35
2023-04-28T05:30:19.474Z,26.23
2023-04-28T05:33:01.461Z,25.85
2023-04-28T05:35:39.465Z,29.25
2023-04-28T05:38:22.133Z,25.50
2023-04-28T05:41:00.125Z,26.60
2023-04-28T05:43:40.284Z,27.55
2023-04-28T05:46:29.242Z,27.30
2023-04-28T05:49:19.854Z,26.88
2023-04-28T05:52:02.359Z,33.75
2023-04-28T05:54:44.946Z,25.92
2023-04-28T05:57:20.853Z,30.13
2023-04-28T05:59:52.456Z,27.85
2023-04-28T06:02:29.986Z,27.90
2023-04-28T06:05:12.298Z,25.38
2023-04-28T06:07:50.101Z,24.10
2023-04-28T06:10:23.713Z,22.23
2023-04-28T06:13:02.307Z,25.40
2023-04-28T06:15:44.204Z,26.75
2023-04-28T06:18:22.811Z,21.70
2023-04-28T06:21:09.660Z,25.98
2023-04-28T06:23:46.488Z,21.88
2023-04-28T06:26:27.168Z,24.20
2023-04-28T06:29:09.384Z,22.70
2023-04-28T06:31:47.419Z,22.83
2023-04-28T06:34:31.856Z,24.92
2023-04-28T06:37:11.402Z,21.00
2023-04-28T06:39:48.082Z,24.15
2023-04-28T06:42:23.332Z,23.92
2023-04-28T06:45:09.490Z,17.25
2023-04-28T06:47:41.227Z,23.45
2023-04-28T06:50:18.220Z,21.65
2023-04-28T06:52:51.214Z,12.52
2023-04-28T06:55:34.930Z,14.50
2023-04-28T06:58:07.394Z,12.90
2023-04-28T07:00:46.193Z,11.43
2023-04-28T07:03:27.919Z,13.82
2023-04-28T07:06:04.656Z,10.50
2023-04-28T07:08:40.852Z,14.57
2023-04-28T07:11:15.620Z,13.13
2023-04-28T07:13:55.314Z,8.88
2023-04-28T07:16:33.190Z,10.52
2023-04-28T07:19:08.920Z,10.00
2023-04-28T07:21:49.791Z,10.23
2023-04-28T07:24:25.834Z,17.10
2023-04-28T07:27:11.248Z,12.02
2023-04-28T07:29:45.664Z,7.80
2023-04-28T07:32:19.304Z,11.70
2023-04-28T07:35:00.431Z,12.32
2023-04-28T07:37:40.044Z,10.15
2023-04-28T07:40:16.963Z,11.63
2023-04-28T07:42:55.421Z,17.20
2023-04-28T07:45:36.831Z,11.18
2023-04-28T07:48:20.812Z,11.75
2023-04-28T07:51:01.346Z,8.70
2023-04-28T07:56:24.151Z,14.65
2023-04-28T07:59:03.590Z,9.70
2023-04-28T08:01:36.703Z,10.80
2023-04-28T08:04:25.069Z,10.32
2023-04-28T08:07:05.095Z,7.80
2023-04-28T08:09:44.798Z,12.45
2023-04-28T08:12:20.329Z,10.10
2023-04-28T08:14:57.449Z,12.23
2023-04-28T08:17:32.575Z,13.45
2023-04-28T08:20:21.071Z,7.30
2023-04-28T08:23:12.252Z,11.82
2023-04-28T08:25:55.755Z,8.23
2023-04-28T08:28:45.329Z,7.75
2023-04-28T08:31:24.150Z,8.18
2023-04-28T08:34:01.914Z,6.32
2023-04-28T08:36:42.962Z,8.40
2023-04-28T08:39:20.861Z,5.78
2023-04-28T08:41:58.597Z,10.43
2023-04-28T08:44:37.197Z,5.90
2023-04-28T08:47:15.444Z,13.60
2023-04-28T08:49:51.034Z,6.40
2023-04-28T08:52:32.970Z,6.78
2023-04-28T08:55:11.354Z,9.68
2023-04-28T08:57:53.831Z,6.53
2023-04-28T09:00:26.984Z,7.38
2023-04-28T09:03:09.395Z,6.03
2023-04-28T09:05:51.607Z,7.43
2023-04-28T09:08:33.561Z,4.60
2023-04-28T09:11:13.946Z,6.28
2023-04-28T09:16:30.015Z,3.72
2023-04-28T09:19:06.186Z,6.70
2023-04-28T09:21:50.720Z,5.60
2023-04-28T09:24:42.040Z,5.78
2023-04-28T09:27:18.956Z,5.50
2023-04-28T09:29:58.219Z,6.18
2023-04-28T09:32:35.715Z,5.03
2023-04-28T09:35:17.244Z,10.10
2023-04-28T09:37:52.777Z,3.17
2023-04-28T09:40:33.579Z,4.88
2023-04-28T09:43:21.012Z,6.93
2023-04-28T09:45:59.388Z,4.50
2023-04-28T09:48:44.183Z,7.40
2023-04-28T09:51:25.261Z,4.65
2023-04-28T09:54:00.840Z,8.40
2023-04-28T09:56:44.645Z,5.15
2023-04-28T09:59:21.873Z,3.53
2023-04-28T10:01:55.189Z,3.90
2023-04-28T10:04:34.214Z,5.80
2023-04-28T10:07:10.616Z,6.25
2023-04-28T10:09:51.607Z,5.38
2023-04-28T10:12:35.372Z,4.97
2023-04-28T10:15:16.761Z,4.55
2023-04-28T10:17:51.064Z,7.55
2023-04-28T10:20:28.474Z,5.63
2023-04-28T10:23:13.642Z,5.93
2023-04-28T10:25:55.614Z,4.30
2023-04-28T10:28:38.648Z,5.72
2023-04-28T10:31:21.625Z,4.82
2023-04-28T10:34:03.232Z,3.58
2023-04-28T10:37:00.337Z,5.60
2023-04-28T10:39:41.045Z,7.68
2023-04-28T10:42:45.420Z,7.10
2023-04-28T10:45:58.096Z,5.88
2023-04-28T10:49:10.652Z,8.60
2023-04-28T10:51:48.832Z,6.63
2023-04-28T10:54:32.193Z,11.00
2023-04-28T10:57:26.168Z,8.57
2023-04-28T11:00:33.990Z,6.43
2023-04-28T11:03:06.956Z,5.78
2023-04-28T11:05:39.841Z,9.90
2023-04-28T11:08:38.809Z,6.47
2023-04-28T11:11:30.138Z,4.93
2023-04-28T11:14:33.186Z,4.50
2023-04-28T11:17:22.646Z,5.43
2023-04-28T11:20:01.421Z,5.10
2023-04-28T11:22:40.759Z,6.72
2023-04-28T11:25:27.427Z,6.63
2023-04-28T11:28:13.047Z,5.43
2023-04-28T11:30:52.568Z,6.38
2023-04-28T11:33:39.131Z,8.50
2023-04-28T11:36:26.053Z,7.00
2023-04-28T11:39:03.433Z,9.13
2023-04-28T11:41:41.490Z,6.97
2023-04-28T11:44:24.046Z,8.00
2023-04-28T11:47:03.464Z,8.50
2023-04-28T11:49:54.612Z,7.57
2023-04-28T11:52:34.767Z,5.28
2023-04-28T11:58:30.699Z,8.70
2023-04-28T12:01:28.601Z,5.32
2023-04-28T12:04:04.677Z,5.70
2023-04-28T12:06:41.331Z,4.15
2023-04-28T12:09:30.840Z,10.98
2023-04-28T12:12:22.951Z,4.35
2023-04-28T12:15:09.572Z,5.57
2023-04-28T12:17:50.323Z,8.70
2023-04-28T12:20:45.860Z,6.20
2023-04-28T12:23:37.300Z,6.85
2023-04-28T12:26:12.701Z,6.25
2023-04-28T12:28:49.522Z,6.13
2023-04-28T12:31:30.649Z,8.30
2023-04-28T12:34:13.516Z,6.57
2023-04-28T12:36:50.208Z,6.75
2023-04-28T12:39:30.598Z,5.10
2023-04-28T12:42:08.806Z,6.82
2023-04-28T12:44:50.405Z,4.20
2023-04-28T12:47:24.909Z,7.10
2023-04-28T12:49:58.873Z,5.22
2023-04-28T12:52:42.430Z,7.20
2023-04-28T12:55:25.070Z,5.28
2023-04-28T12:58:02.360Z,5.93
2023-04-28T13:00:39.601Z,9.43
2023-04-28T13:03:22.113Z,5.65
2023-04-28T13:05:56.144Z,6.03
2023-04-28T13:08:31.934Z,5.85
2023-04-28T13:11:22.444Z,4.03
2023-04-28T13:14:04.124Z,4.70
2023-04-28T13:16:52.587Z,8.10
2023-04-28T13:19:34.352Z,4.47
2023-04-28T13:22:17.178Z,4.80
2023-04-28T13:25:03.215Z,3.95
2023-04-28T13:27:48.564Z,4.28
2023-04-28T13:30:25.141Z,7.60
2023-04-28T13:33:07.057Z,5.97
2023-04-28T13:35:47.400Z,5.40
2023-04-28T13:38:23.242Z,4.32
2023-04-28T13:41:00.651Z,5.63
2023-04-28T13:43:46.204Z,4.78
2023-04-28T13:46:26.429Z,3.72
2023-04-28T13:49:07.219Z,8.57
2023-04-28T13:51:42.481Z,4.63
2023-04-28T13:54:22.636Z,4.90
2023-04-28T13:57:05.458Z,5.65
2023-04-28T13:59:46.105Z,5.50
2023-04-28T14:02:31.615Z,8.45
2023-04-28T14:05:07.377Z,9.02
2023-04-28T14:07:44.984Z,8.57
2023-04-28T14:10:29.110Z,6.78
2023-04-28T14:13:09.473Z,7.00
2023-04-28T14:15:58.639Z,8.65
2023-04-28T14:18:40.505Z,3.50
2023-04-28T14:21:15.888Z,4.60
2023-04-28T14:23:51.061Z,10.93
2023-04-28T14:26:35.354Z,5.47
2023-04-28T14:29:16.679Z,4.07
2023-04-28T14:31:53.595Z,4.90
2023-04-28T14:34:31.346Z,4.03
2023-04-28T14:37:22.943Z,6.10
2023-04-28T14:40:08.244Z,8.82
2023-04-28T14:42:50.873Z,8.52
2023-04-28T14:45:30.796Z,4.50
2023-04-28T14:48:11.057Z,6.80
2023-04-28T14:50:53.194Z,10.40
2023-04-28T14:53:37.825Z,8.60
2023-04-28T14:56:20.367Z,7.50
2023-04-28T14:58:57.835Z,5.10
2023-04-28T15:01:44.042Z,5.07
2023-04-28T15:04:31.143Z,6.63
2023-04-28T15:07:07.794Z,13.35
2023-04-28T15:09:56.298Z,7.38
2023-04-28T15:12:32.701Z,4.30
2023-04-28T15:15:09.632Z,6.10
2023-04-28T15:17:54.528Z,7.32
2023-04-28T15:20:44.734Z,16.38
2023-04-28T15:23:23.746Z,9.63
2023-04-28T15:26:09.737Z,7.82
2023-04-28T15:28:40.711Z,3.55
2023-04-28T15:31:12.280Z,11.93
2023-04-28T15:33:48.257Z,7.93
2023-04-28T15:36:37.723Z,4.00
2023-04-28T15:39:09.250Z,6.80
2023-04-28T15:41:45.650Z,7.13
2023-04-28T15:44:22.858Z,6.50
2023-04-28T15:47:02.723Z,8.27
2023-04-28T15:49:42.855Z,5.40
2023-04-28T15:52:19.952Z,8.70
2023-04-28T15:54:52.110Z,8.07
2023-04-28T15:57:31.788Z,7.22
2023-04-28T16:00:06.899Z,6.97
2023-04-28T16:02:50.380Z,9.27
2023-04-28T16:05:29.290Z,6.05
2023-04-28T16:08:07.279Z,8.73
2023-04-28T16:10:42.827Z,5.18
2023-04-28T16:13:22.612Z,5.63
2023-04-28T16:16:04.587Z,5.68
2023-04-28T16:18:51.728Z,7.32
2023-04-28T16:21:29.637Z,7.10
2023-04-28T16:24:17.347Z,8.13
2023-04-28T16:26:54.844Z,7.70
2023-04-28T16:29:38.789Z,8.70
2023-04-28T16:32:15.001Z,6.22
2023-04-28T16:34:53.319Z,7.00
2023-04-28T16:37:31.312Z,7.50
2023-04-28T16:40:11.333Z,6.68
2023-04-28T16:42:49.310Z,7.07
2023-04-28T16:45:24.977Z,5.35
2023-04-28T16:48:05.681Z,8.18
2023-04-28T16:50:47.926Z,9.15
2023-04-28T16:56:02.583Z,9.00
2023-04-28T16:58:35.496Z,5.35
2023-04-28T17:01:19.531Z,12.80
2023-04-28T17:03:58.081Z,6.32
2023-04-28T17:06:33.500Z,5.60
2023-04-28T17:09:31.653Z,6.97
2023-04-28T17:12:16.256Z,7.82
2023-04-28T17:14:51.389Z,9.07
2023-04-28T17:17:32.383Z,5.40
2023-04-28T17:20:18.493Z,4.80
2023-04-28T17:22:57.736Z,7.53
2023-04-28T17:25:38.870Z,9.38
2023-04-28T17:30:50.508Z,6.15
2023-04-28T17:33:31.635Z,5.00
2023-04-28T17:36:14.388Z,6.15
2023-04-28T17:38:52.219Z,8.70
2023-04-28T17:41:28.409Z,8.95
2023-04-28T17:44:11.134Z,6.88
2023-04-28T17:46:46.999Z,7.43
2023-04-28T17:49:24.242Z,10.93
2023-04-28T17:52:01.176Z,11.02
2023-04-28T17:54:40.134Z,14.13
2023-04-28T17:57:14.430Z,13.90
2023-04-28T17:59:56.051Z,10.85
2023-04-28T18:02:34.859Z,11.38
2023-04-28T18:05:14.451Z,20.80
2023-04-28T18:07:53.629Z,11.00
2023-04-28T18:10:29.820Z,12.05
2023-04-28T18:13:10.823Z,11.50
2023-04-28T18:15:49.498Z,10.57
2023-04-28T18:18:27.215Z,12.38
2023-04-28T18:21:19.027Z,14.63
2023-04-28T18:24:26.631Z,8.25
2023-04-28T18:27:04.204Z,10.13
2023-04-28T18:29:36.047Z,11.38
2023-04-28T18:32:18.841Z,11.48
2023-04-28T18:34:54.844Z,9.32
2023-04-28T18:37:31.823Z,11.57
2023-04-28T18:40:06.589Z,19.63
2023-04-28T18:42:45.542Z,10.52
2023-04-28T18:45:33.380Z,10.95
2023-04-28T18:48:12.613Z,10.98
2023-04-28T18:50:56.750Z,20.20
2023-04-28T18:53:35.694Z,15.95
2023-04-28T18:56:11.583Z,16.15
2023-04-28T18:58:52.541Z,17.95
2023-04-28T19:01:31.910Z,21.48
2023-04-28T19:04:09.623Z,21.83
2023-04-28T19:06:47.765Z,19.25
2023-04-28T19:09:26.786Z,18.75
2023-04-28T19:12:00.788Z,24.08
2023-04-28T19:14:39.884Z,21.02
2023-04-28T19:17:12.966Z,21.92
2023-04-28T19:19:52.066Z,21.48
2023-04-28T19:22:42.532Z,27.05
2023-04-28T19:25:16.073Z,28.65
2023-04-28T19:28:14.932Z,23.60
2023-04-28T19:30:54.205Z,28.10
2023-04-28T19:33:34.175Z,25.48
2023-04-28T19:36:12.259Z,25.60
2023-04-28T19:38:48.812Z,24.35
2023-04-28T19:41:21.695Z,25.60
2023-04-28T19:44:11.714Z,28.50
2023-04-28T19:46:49.992Z,26.80
2023-04-28T19:49:33.219Z,21.20
2023-04-28T19:52:18.805Z,21.92
2023-04-28T19:55:05.133Z,28.58
2023-04-28T19:57:56.091Z,21.60
2023-04-28T20:00:36.193Z,24.05
2023-04-28T20:03:11.187Z,28.33
2023-04-28T20:05:46.952Z,20.15
2023-04-28T20:08:27.336Z,23.10
2023-04-28T20:11:17.818Z,23.25
2023-04-28T20:13:59.518Z,22.27
2023-04-28T20:16:37.412Z,22.10
2023-04-28T20:19:18.597Z,39.20
2023-04-28T20:22:08.379Z,30.85
2023-04-28T20:24:45.860Z,25.33
2023-04-28T20:27:26.503Z,19.98
2023-04-28T20:30:01.423Z,21.40
2023-04-28T20:32:44.110Z,19.33
2023-04-28T20:35:34.226Z,21.67
2023-04-28T20:38:15.828Z,21.27
2023-04-28T20:40:54.024Z,22.03
2023-04-28T20:43:41.397Z,19.02
2023-04-28T20:46:22.628Z,25.48
2023-04-28T20:49:07.702Z,22.63
2023-04-28T20:51:46.605Z,23.38
2023-04-28T20:54:21.811Z,22.98
2023-04-28T20:57:10.504Z,21.27
2023-04-28T20:59:47.589Z,22.25
2023-04-28T21:02:21.882Z,20.58
2023-04-28T21:05:05.643Z,25.30
2023-04-28T21:07:42.628Z,16.35
2023-04-28T21:10:22.392Z,13.52
2023-04-28T21:13:11.714Z,16.48
2023-04-28T21:15:47.705Z,17.60
2023-04-28T21:18:23.244Z,14.98
2023-04-28T21:21:06.010Z,13.77
2023-04-28T21:23:47.250Z,27.35
2023-04-28T21:26:30.209Z,14.52
2023-04-28T21:29:17.871Z,16.90
2023-04-28T21:31:56.700Z,17.95
2023-04-28T21:34:38.911Z,14.70
2023-04-28T21:37:19.873Z,14.90
2023-04-28T21:39:53.922Z,14.60
2023-04-28T21:42:33.310Z,14.98
2023-04-28T21:45:21.450Z,14.40
2023-04-28T21:48:04.723Z,16.23
2023-04-28T21:50:43.885Z,13.95
2023-04-28T21:53:19.448Z,14.18
2023-04-28T21:55:54.109Z,18.60
2023-04-28T21:58:35.080Z,16.58
2023-04-28T22:01:11.213Z,12.60
2023-04-28T22:03:43.188Z,13.52
2023-04-28T22:06:18.501Z,12.90
2023-04-28T22:08:57.548Z,12.63
2023-04-28T22:11:32.276Z,13.02
2023-04-28T22:14:07.964Z,12.00
2023-04-28T22:16:59.561Z,13.85
2023-04-28T22:19:36.333Z,13.45
2023-04-28T22:22:18.253Z,12.75
2023-04-28T22:25:05.666Z,10.98
2023-04-28T22:27:44.204Z,12.02
2023-04-28T22:30:25.740Z,11.13
2023-04-28T22:32:59.745Z,12.30
2023-04-28T22:35:34.043Z,11.35
2023-04-28T22:38:15.597Z,12.40
2023-04-28T22:40:56.681Z,11.30
2023-04-28T22:43:30.490Z,11.68
2023-04-28T22:46:04.536Z,11.73
2023-04-28T22:48:40.877Z,11.50
2023-04-28T22:51:17.832Z,16.13
2023-04-28T22:53:59.786Z,9.52
2023-04-28T22:56:33.959Z,9.63
2023-04-28T22:59:10.783Z,10.95
2023-04-28T23:01:51.347Z,15.52
2023-04-28T23:04:37.361Z,10.65
2023-04-28T23:07:12.839Z,11.27
2023-04-28T23:09:52.857Z,12.75
2023-04-28T23:12:30.725Z,11.63
2023-04-28T23:15:11.563Z,18.83
2023-04-28T23:17:55.198Z,14.52
2023-04-28T23:20:50.149Z,14.65
2023-04-28T23:23:34.490Z,12.90
2023-04-28T23:26:11.730Z,16.40
2023-04-28T23:28:50.946Z,15.98
2023-04-28T23:31:32.848Z,18.27
2023-04-28T23:34:11.369Z,16.30
2023-04-28T23:36:59.818Z,15.43
2023-04-28T23:39:38.827Z,12.43
2023-04-28T23:42:13.352Z,13.68
2023-04-28T23:44:50.646Z,12.57
2023-04-28T23:47:23.819Z,13.13
2023-04-28T23:50:03.316Z,13.88
2023-04-28T23:52:41.110Z,11.63
2023-04-28T23:55:19.387Z,13.73
2023-04-28T23:57:52.202Z,12.35
